Terminal Aerodrome Forecast
Issued by NWS

Home | Current Version | Previous Version | Text Only | Print | Product List | Glossary On
Versions: 1 2 3 4 5 6 7 8 9 10 11 12 13 14 15 16
000
FTUS43 KABR 300521
TAFATY
TAF
KATY 300521Z 3006/0106 06007KT P6SM OVC200
     FM301300 04012KT P6SM OVC120
     FM301700 04016G26KT P6SM OVC130
     FM302100 04021G32KT P6SM -RA OVC080
     FM010300 02017G27KT 6SM -SNRA OVC025=

USA.gov is the U.S. government's official web portal to all federal, state and local government web resources and services.